Addison, Texas
Current Conditions -  °F | °C
As of 9:47 AM on Wednesday 26 Nov 2014 (Local Time) from KADS Reporting Station
Clear Clear  
Wind Chill: 52°   Ceiling: Unl
Heat Index: 52°   Visibility: 13mi
Dew Point: 25°   Wind: 14mph
Humidity: 35%   Direction: 300°WNW
Pressure: 30.15"   Gusts: NA
Location:  32.95°N, 96.82°W
Report Text: KADS 261547Z 30012KT 13SM SKC 11/M04 A3015
Loading
Personal Weather Stations






























Interactive Weather Map New forecast layout! Learn more

10-Day Weather Forecast

Advertisements
Track Severe Weather on mobile